createdAt,value
2023-03-20T00:06:25.139Z,18.2
2023-03-20T00:16:24.568Z,18.1
2023-03-20T00:26:26.107Z,18.1
2023-03-20T00:36:26.922Z,18.1
2023-03-20T00:46:27.313Z,18.2
2023-03-20T00:56:27.175Z,18.1
2023-03-20T01:06:28.022Z,18
2023-03-20T01:16:29.008Z,18.1
2023-03-20T01:26:28.711Z,18.2
2023-03-20T01:36:29.387Z,18
2023-03-20T01:46:30.243Z,18.1
2023-03-20T01:56:30.768Z,18.1
2023-03-20T02:06:31.080Z,18.1
2023-03-20T02:16:32.129Z,18
2023-03-20T02:26:32.697Z,18
2023-03-20T02:36:32.265Z,18
2023-03-20T02:46:33.070Z,18.1
2023-03-20T02:56:33.232Z,17.9
2023-03-20T03:06:07.844Z,17.9
2023-03-20T03:16:08.928Z,17.9
2023-03-20T03:26:09.544Z,17.9
2023-03-20T03:36:09.404Z,17.8
2023-03-20T03:46:10.662Z,18
2023-03-20T03:56:10.268Z,17.9
2023-03-20T04:06:12.077Z,17.9
2023-03-20T04:16:13.572Z,18.1
2023-03-20T04:26:14.885Z,17.9
2023-03-20T04:36:16.847Z,17.9
2023-03-20T04:46:19.214Z,18
2023-03-20T04:56:20.725Z,17.9
2023-03-20T05:06:21.150Z,18
2023-03-20T05:16:20.970Z,18
2023-03-20T05:26:23.356Z,18.1
2023-03-20T05:36:31.989Z,17.4
2023-03-20T05:46:46.620Z,17.6
2023-03-20T05:57:00.539Z,17.2
2023-03-20T06:07:14.908Z,17.4
2023-03-20T06:17:29.278Z,17.9
2023-03-20T06:27:44.351Z,17.3
2023-03-20T06:37:58.205Z,17.6
2023-03-20T06:48:12.358Z,17.7
2023-03-20T06:58:27.433Z,17.6
2023-03-20T07:08:42.497Z,17.4
2023-03-20T07:18:57.759Z,17.5
2023-03-20T07:29:13.290Z,18.1
2023-03-20T07:39:28.333Z,17.6
2023-03-20T07:49:45.975Z,17.8
2023-03-20T08:00:03.932Z,17.7
2023-03-20T08:10:18.003Z,17.7
2023-03-20T08:20:33.556Z,17.6
2023-03-20T08:30:48.807Z,17.7
2023-03-20T08:41:03.193Z,17.9
2023-03-20T08:51:18.847Z,17.9
2023-03-20T09:06:20.721Z,17.8
2023-03-20T09:16:40.527Z,18.1
2023-03-20T09:27:03.568Z,18.5
2023-03-20T09:37:21.344Z,18.3
2023-03-20T09:47:39.749Z,18.1
2023-03-20T09:57:57.780Z,18.2
2023-03-20T10:08:16.109Z,17.3
2023-03-20T10:18:34.450Z,17.9
2023-03-20T10:28:55.499Z,18.2
2023-03-20T10:39:16.244Z,17.9
2023-03-20T10:49:37.345Z,18.4
2023-03-20T10:59:56.839Z,18.3
2023-03-20T11:10:16.126Z,18.1
2023-03-20T11:20:35.697Z,18.6
2023-03-20T11:31:04.318Z,18.3
2023-03-20T11:41:12.549Z,18.9
2023-03-20T11:51:29.500Z,18.6
2023-03-20T12:01:43.840Z,18.6
2023-03-20T12:11:56.967Z,18.6
2023-03-20T12:22:06.918Z,18.5
2023-03-20T12:32:14.835Z,18.4
2023-03-20T12:42:20.293Z,18.4
2023-03-20T12:52:25.179Z,18.5
2023-03-20T13:02:29.806Z,18.6
2023-03-20T13:12:34.345Z,18.5
2023-03-20T13:22:38.960Z,18.6
2023-03-20T13:32:43.072Z,18.8
2023-03-20T13:42:47.980Z,18.8
2023-03-20T13:52:52.880Z,18.9
2023-03-20T14:02:56.856Z,18.6
2023-03-20T14:13:01.321Z,18.6
2023-03-20T14:23:05.761Z,18.8
2023-03-20T14:33:07.383Z,18.6
2023-03-20T14:43:08.768Z,18.3
2023-03-20T14:53:12.553Z,18.8
2023-03-20T15:06:10.422Z,18.5
2023-03-20T15:16:11.667Z,18.5
2023-03-20T15:26:14.084Z,18.6
2023-03-20T15:36:17.284Z,18.8
2023-03-20T15:46:19.684Z,18.6
2023-03-20T15:56:21.125Z,18.6
2023-03-20T16:06:21.917Z,18.5
2023-03-20T16:16:22.479Z,18.6
2023-03-20T16:26:23.405Z,18.3
2023-03-20T16:36:25.059Z,18.6
2023-03-20T16:46:27.195Z,18.4
2023-03-20T16:56:29.747Z,18.5
2023-03-20T17:06:31.213Z,18.6
2023-03-20T17:16:33.124Z,18.5
2023-03-20T17:26:34.432Z,18.4
2023-03-20T17:36:35.978Z,18.4
2023-03-20T17:46:49.906Z,18.6
2023-03-20T17:56:39.286Z,18.4
2023-03-20T18:06:40.199Z,18.6
2023-03-20T18:16:40.848Z,18.5
2023-03-20T18:26:42.376Z,18.5
2023-03-20T18:36:43.431Z,18.4
2023-03-20T18:46:44.213Z,18.5
2023-03-20T18:56:44.308Z,18.4
2023-03-20T19:06:45.177Z,18.4
2023-03-20T19:16:46.789Z,18.6
2023-03-20T19:26:46.757Z,18.5
2023-03-20T19:36:48.424Z,18.5
2023-03-20T19:46:47.150Z,18.5
2023-03-20T19:56:48.685Z,18.5
2023-03-20T20:06:49.436Z,18.6
2023-03-20T20:16:50.234Z,18.6
2023-03-20T20:26:54.708Z,18.4
2023-03-20T20:37:36.684Z,18.5
2023-03-20T20:46:51.307Z,18.4
2023-03-20T20:56:51.525Z,18.6
2023-03-20T21:06:09.827Z,18.6
2023-03-20T21:16:07.588Z,18.4
2023-03-20T21:26:07.233Z,18.5
2023-03-20T21:36:07.769Z,18.6
2023-03-20T21:58:10.209Z,18.5
2023-03-20T22:07:48.989Z,18.6
2023-03-20T22:18:54.655Z,18.6
2023-03-20T22:29:04.973Z,18.8
2023-03-20T22:39:10.689Z,18.6
2023-03-20T22:48:25.769Z,18.6
2023-03-20T22:58:26.100Z,18.6
2023-03-20T23:08:25.821Z,18.6
2023-03-20T23:18:25.726Z,18.6
2023-03-20T23:28:26.240Z,18.6
2023-03-20T23:38:26.775Z,18.6
2023-03-20T23:48:29.441Z,18.6
2023-03-20T23:58:26.155Z,18.6
